createdAt,value
2019-03-18T00:00:13.818Z,0.78
2019-03-18T00:02:46.754Z,0.37
2019-03-18T00:05:19.798Z,1.22
2019-03-18T00:07:53.769Z,0.75
2019-03-18T00:10:30.241Z,1.22
2019-03-18T00:13:03.670Z,0.60
2019-03-18T00:18:11.898Z,0.80
2019-03-18T00:20:47.130Z,1.02
2019-03-18T00:23:21.331Z,1.05
2019-03-18T00:25:54.650Z,1.07
2019-03-18T00:28:28.028Z,1.05
2019-03-18T00:31:01.798Z,0.85
2019-03-18T00:33:35.744Z,0.88
2019-03-18T00:36:09.304Z,1.00
2019-03-18T00:41:13.741Z,0.88
2019-03-18T00:43:47.075Z,1.47
2019-03-18T00:46:20.492Z,0.60
2019-03-18T00:48:57.366Z,1.17
2019-03-18T00:51:30.011Z,0.80
2019-03-18T00:54:03.217Z,0.60
2019-03-18T00:59:08.035Z,0.80
2019-03-18T01:01:40.989Z,1.05
2019-03-18T01:04:14.276Z,1.05
2019-03-18T01:09:20.178Z,0.60
2019-03-18T01:11:54.242Z,1.30
2019-03-18T01:14:31.970Z,1.12
2019-03-18T01:17:05.995Z,1.25
2019-03-18T01:19:40.205Z,0.60
2019-03-18T01:22:13.560Z,0.95
2019-03-18T01:24:46.997Z,1.75
2019-03-18T01:27:20.562Z,1.60
2019-03-18T01:29:54.279Z,1.62
2019-03-18T01:32:27.658Z,1.55
2019-03-18T01:35:00.514Z,1.82
2019-03-18T01:37:34.161Z,0.90
2019-03-18T01:40:08.571Z,1.30
2019-03-18T01:42:41.967Z,1.25
2019-03-18T01:45:15.241Z,1.32
2019-03-18T01:47:49.395Z,1.57
2019-03-18T01:50:22.907Z,1.42
2019-03-18T01:55:28.373Z,1.75
2019-03-18T01:58:01.943Z,2.08
2019-03-18T02:00:40.103Z,1.00
2019-03-18T02:03:13.978Z,2.25
2019-03-18T02:05:47.879Z,1.55
2019-03-18T02:08:21.196Z,0.85
2019-03-18T02:10:54.334Z,1.82
2019-03-18T02:13:27.990Z,1.60
2019-03-18T02:16:01.114Z,2.15
2019-03-18T02:18:34.347Z,2.45
2019-03-18T02:23:39.264Z,1.82
2019-03-18T02:26:13.505Z,0.82
2019-03-18T02:28:47.427Z,1.62
2019-03-18T02:31:21.503Z,2.17
2019-03-18T02:33:54.859Z,0.78
2019-03-18T02:36:28.249Z,2.30
2019-03-18T02:39:08.284Z,2.05
2019-03-18T02:41:46.826Z,2.10
2019-03-18T02:44:21.719Z,2.02
2019-03-18T02:47:02.799Z,2.45
2019-03-18T02:49:37.560Z,2.05
2019-03-18T02:52:12.930Z,1.67
2019-03-18T02:54:48.644Z,1.27
2019-03-18T02:57:22.324Z,1.07
2019-03-18T02:59:55.390Z,2.10
2019-03-18T03:02:28.727Z,2.30
2019-03-18T03:07:34.583Z,1.60
2019-03-18T03:10:08.927Z,2.08
2019-03-18T03:12:42.077Z,1.52
2019-03-18T03:15:15.476Z,1.20
2019-03-18T03:17:48.665Z,1.30
2019-03-18T03:20:22.139Z,1.65
2019-03-18T03:22:55.438Z,1.50
2019-03-18T03:25:28.132Z,1.45
2019-03-18T03:28:01.280Z,1.30
2019-03-18T03:30:33.751Z,1.12
2019-03-18T03:33:06.792Z,1.00
2019-03-18T03:35:41.470Z,1.52
2019-03-18T03:38:17.516Z,1.45
2019-03-18T03:40:50.635Z,1.05
2019-03-18T03:43:26.689Z,1.42
2019-03-18T03:46:00.652Z,1.30
2019-03-18T03:48:37.344Z,1.75
2019-03-18T03:51:10.308Z,0.75
2019-03-18T03:53:44.243Z,1.50
2019-03-18T03:56:17.863Z,1.37
2019-03-18T04:01:22.362Z,1.25
2019-03-18T04:03:55.145Z,1.20
2019-03-18T04:06:28.086Z,1.72
2019-03-18T04:09:01.214Z,1.20
2019-03-18T04:11:34.082Z,1.42
2019-03-18T04:14:07.504Z,1.97
2019-03-18T04:17:00.567Z,2.55
2019-03-18T04:19:20.667Z,1.87
2019-03-18T04:21:54.675Z,2.62
2019-03-18T04:24:27.684Z,2.00
2019-03-18T04:27:01.234Z,2.12
2019-03-18T04:29:33.813Z,1.57
2019-03-18T04:32:08.218Z,1.17
2019-03-18T04:34:41.647Z,2.08
2019-03-18T04:37:14.916Z,1.55
2019-03-18T04:39:49.176Z,1.85
2019-03-18T04:42:23.169Z,2.02
2019-03-18T04:44:56.208Z,1.22
2019-03-18T04:47:29.241Z,1.90
2019-03-18T04:50:02.681Z,1.65
2019-03-18T04:52:35.977Z,2.08
2019-03-18T04:55:09.675Z,2.02
2019-03-18T04:57:43.326Z,3.22
2019-03-18T05:00:16.380Z,2.22
2019-03-18T05:02:49.394Z,2.30
2019-03-18T05:05:22.439Z,1.90
2019-03-18T05:07:54.923Z,2.37
2019-03-18T05:10:27.688Z,2.55
2019-03-18T05:13:01.617Z,2.35
2019-03-18T05:15:34.625Z,2.27
2019-03-18T05:20:38.816Z,1.30
2019-03-18T05:23:12.074Z,2.42
2019-03-18T05:28:17.147Z,1.70
2019-03-18T05:30:50.815Z,1.87
2019-03-18T05:33:23.580Z,2.17
2019-03-18T05:35:56.936Z,1.95
2019-03-18T05:38:29.913Z,2.40
2019-03-18T05:43:34.865Z,1.57
2019-03-18T05:46:08.344Z,2.37
2019-03-18T05:48:41.622Z,2.43
2019-03-18T05:51:14.404Z,2.67
2019-03-18T05:53:47.549Z,1.98
2019-03-18T05:56:20.361Z,2.63
2019-03-18T05:58:53.221Z,2.40
2019-03-18T06:01:26.716Z,1.97
2019-03-18T06:03:59.925Z,2.23
2019-03-18T06:06:32.966Z,2.87
2019-03-18T06:11:39.118Z,1.27
2019-03-18T06:14:12.078Z,2.80
2019-03-18T06:19:16.795Z,1.37
2019-03-18T06:24:21.308Z,1.25
2019-03-18T06:26:54.454Z,2.12
2019-03-18T06:29:29.951Z,2.20
2019-03-18T06:32:03.888Z,2.13
2019-03-18T06:34:37.388Z,2.37
2019-03-18T06:37:10.348Z,2.27
2019-03-18T06:42:14.553Z,1.62
2019-03-18T06:44:47.289Z,3.67
2019-03-18T06:47:20.298Z,2.22
2019-03-18T06:49:52.957Z,2.12
2019-03-18T06:52:26.741Z,2.20
2019-03-18T06:55:00.418Z,1.47
2019-03-18T06:57:33.206Z,1.40
2019-03-18T07:00:07.114Z,1.20
2019-03-18T07:02:40.957Z,1.80
2019-03-18T07:05:13.767Z,2.10
2019-03-18T07:07:47.131Z,1.17
2019-03-18T07:10:20.496Z,1.90
2019-03-18T07:12:52.746Z,1.37
2019-03-18T07:15:27.437Z,1.70
2019-03-18T07:18:00.756Z,2.35
2019-03-18T07:20:34.219Z,1.40
2019-03-18T07:23:07.725Z,0.60
2019-03-18T07:25:40.654Z,2.20
2019-03-18T07:28:13.904Z,1.15
2019-03-18T07:30:47.178Z,1.40
2019-03-18T07:33:20.654Z,1.30
2019-03-18T07:35:54.297Z,1.93
2019-03-18T07:38:27.281Z,0.60
2019-03-18T07:43:31.913Z,1.55
2019-03-18T07:46:05.420Z,1.75
2019-03-18T07:48:39.049Z,1.72
2019-03-18T07:53:44.437Z,1.27
2019-03-18T07:56:18.044Z,1.55
2019-03-18T08:01:23.019Z,1.42
2019-03-18T08:06:28.552Z,0.40
2019-03-18T08:09:01.628Z,0.90
2019-03-18T08:11:34.859Z,1.27
2019-03-18T08:16:40.034Z,1.75
2019-03-18T08:19:12.966Z,0.98
2019-03-18T08:21:46.446Z,1.12
2019-03-18T08:24:19.846Z,1.72
2019-03-18T08:26:55.518Z,0.98
2019-03-18T08:29:29.418Z,1.02
2019-03-18T08:32:02.998Z,0.90
2019-03-18T08:34:36.766Z,0.82
2019-03-18T08:37:10.427Z,1.52
2019-03-18T08:39:44.092Z,1.52
2019-03-18T08:42:18.071Z,1.17
2019-03-18T08:44:51.374Z,1.50
2019-03-18T08:47:24.502Z,1.12
2019-03-18T08:49:57.619Z,2.20
2019-03-18T08:52:30.390Z,1.35
2019-03-18T08:55:03.748Z,1.77
2019-03-18T08:57:37.614Z,1.67
2019-03-18T09:00:12.457Z,1.65
2019-03-18T09:02:46.682Z,2.10
2019-03-18T09:05:20.276Z,1.98
2019-03-18T09:07:53.956Z,1.27
2019-03-18T09:10:26.619Z,1.05
2019-03-18T09:12:59.989Z,1.47
2019-03-18T09:15:33.080Z,1.52
2019-03-18T09:18:06.238Z,1.50
2019-03-18T09:20:39.337Z,1.57
2019-03-18T09:25:44.021Z,1.98
2019-03-18T09:28:17.529Z,1.50
2019-03-18T09:33:21.630Z,1.90
2019-03-18T09:35:55.439Z,1.25
2019-03-18T09:38:29.495Z,1.37
2019-03-18T09:41:03.276Z,1.60
2019-03-18T09:43:36.588Z,1.82
2019-03-18T09:46:10.131Z,1.45
2019-03-18T09:48:43.559Z,1.77
2019-03-18T09:51:16.995Z,1.27
2019-03-18T09:53:49.920Z,1.75
2019-03-18T09:56:23.190Z,0.93
2019-03-18T09:58:56.417Z,2.00
2019-03-18T10:01:29.533Z,1.60
2019-03-18T10:06:33.834Z,1.75
2019-03-18T10:09:09.503Z,1.60
2019-03-18T10:11:43.780Z,1.87
2019-03-18T10:14:19.706Z,1.12
2019-03-18T10:16:52.774Z,1.32
2019-03-18T10:19:33.543Z,2.20
2019-03-18T10:22:01.574Z,1.47
2019-03-18T10:24:34.397Z,2.10
2019-03-18T10:27:06.928Z,1.77
2019-03-18T10:29:40.743Z,2.15
2019-03-18T10:32:14.482Z,1.87
2019-03-18T10:34:48.832Z,1.12
2019-03-18T10:37:22.908Z,1.22
2019-03-18T10:39:56.402Z,1.32
2019-03-18T10:42:29.981Z,1.10
2019-03-18T10:45:03.303Z,1.22
2019-03-18T10:47:36.196Z,1.77
2019-03-18T10:52:41.776Z,1.07
2019-03-18T10:55:15.564Z,1.17
2019-03-18T10:57:48.853Z,0.90
2019-03-18T11:00:21.866Z,1.47
2019-03-18T11:05:26.911Z,1.27
2019-03-18T11:08:01.167Z,1.85
2019-03-18T11:10:35.608Z,1.10
2019-03-18T11:13:09.170Z,1.12
2019-03-18T11:15:42.852Z,1.50
2019-03-18T11:18:16.525Z,0.80
2019-03-18T11:20:50.393Z,1.35
2019-03-18T11:23:23.887Z,1.05
2019-03-18T11:28:28.940Z,1.05
2019-03-18T11:31:02.277Z,0.93
2019-03-18T11:33:35.339Z,1.30
2019-03-18T11:36:08.658Z,1.02
2019-03-18T11:38:42.561Z,1.17
2019-03-18T11:41:17.442Z,1.32
2019-03-18T11:43:51.223Z,1.30
2019-03-18T11:48:55.845Z,1.20
2019-03-18T11:51:30.235Z,1.07
2019-03-18T11:54:03.636Z,0.42
2019-03-18T11:59:08.223Z,1.20
2019-03-18T12:01:41.594Z,1.12
2019-03-18T12:04:14.643Z,1.00
2019-03-18T12:06:47.741Z,1.07
2019-03-18T12:09:20.520Z,1.47
2019-03-18T12:11:53.328Z,1.85
2019-03-18T12:14:27.260Z,1.22
2019-03-18T12:17:00.611Z,1.20
2019-03-18T12:19:34.357Z,1.90
2019-03-18T12:22:08.450Z,1.05
2019-03-18T12:24:45.804Z,0.68
2019-03-18T12:27:19.116Z,0.75
2019-03-18T12:29:52.618Z,0.90
2019-03-18T12:32:25.924Z,1.42
2019-03-18T12:34:59.147Z,1.37
2019-03-18T12:37:32.196Z,1.10
2019-03-18T12:40:05.654Z,0.93
2019-03-18T12:42:39.106Z,0.68
2019-03-18T12:47:43.929Z,1.55
2019-03-18T12:50:17.554Z,1.40
2019-03-18T12:52:51.195Z,1.60
2019-03-18T12:55:24.624Z,1.67
2019-03-18T13:00:29.196Z,1.30
2019-03-18T13:05:33.783Z,1.22
2019-03-18T13:08:08.414Z,1.17
2019-03-18T13:10:41.802Z,1.45
2019-03-18T13:18:23.282Z,1.52
2019-03-18T13:21:07.247Z,1.45
2019-03-18T13:23:32.557Z,1.12
2019-03-18T13:26:06.273Z,0.90
2019-03-18T13:28:40.537Z,1.50
2019-03-18T13:31:14.240Z,1.02
2019-03-18T13:33:47.964Z,0.85
2019-03-18T13:36:21.469Z,0.88
2019-03-18T13:38:55.525Z,1.20
2019-03-18T13:41:29.927Z,1.05
2019-03-18T13:44:04.064Z,0.72
2019-03-18T13:46:37.466Z,1.12
2019-03-18T13:51:44.955Z,0.75
2019-03-18T13:54:18.086Z,1.17
2019-03-18T13:56:51.954Z,1.30
2019-03-18T13:59:25.338Z,1.30
2019-03-18T14:04:30.217Z,1.25
2019-03-18T14:09:34.071Z,1.10
2019-03-18T14:12:08.628Z,1.05
2019-03-18T14:14:42.111Z,0.95
2019-03-18T14:17:15.828Z,0.82
2019-03-18T14:19:49.456Z,1.55
2019-03-18T14:22:22.545Z,1.30
2019-03-18T14:24:56.616Z,1.45
2019-03-18T14:27:30.687Z,1.57
2019-03-18T14:30:04.940Z,0.70
2019-03-18T14:32:38.445Z,1.12
2019-03-18T14:35:11.697Z,1.25
2019-03-18T14:37:44.988Z,1.95
2019-03-18T14:40:18.229Z,1.87
2019-03-18T14:42:51.625Z,1.65
2019-03-18T14:45:24.612Z,1.65
2019-03-18T14:47:57.898Z,1.20
2019-03-18T14:50:31.908Z,1.75
2019-03-18T14:53:05.395Z,1.22
2019-03-18T14:55:40.005Z,1.62
2019-03-18T14:58:14.407Z,1.12
2019-03-18T15:00:48.868Z,1.52
2019-03-18T15:03:22.717Z,1.65
2019-03-18T15:05:55.913Z,1.32
2019-03-18T15:08:29.976Z,1.15
2019-03-18T15:11:03.442Z,1.05
2019-03-18T15:13:36.924Z,1.02
2019-03-18T15:16:10.838Z,1.77
2019-03-18T15:18:44.851Z,0.85
2019-03-18T15:21:19.041Z,1.12
2019-03-18T15:23:52.792Z,1.15
2019-03-18T15:26:26.286Z,1.40
2019-03-18T15:28:59.922Z,1.30
2019-03-18T15:31:33.013Z,1.30
2019-03-18T15:34:06.166Z,0.82
2019-03-18T15:36:40.351Z,1.02
2019-03-18T15:39:14.041Z,1.25
2019-03-18T15:41:47.997Z,1.15
2019-03-18T15:44:21.880Z,0.90
2019-03-18T15:46:55.853Z,1.17
2019-03-18T15:49:29.741Z,1.32
2019-03-18T15:52:11.087Z,1.37
2019-03-18T15:54:39.389Z,1.00
2019-03-18T15:57:13.236Z,1.10
2019-03-18T15:59:47.185Z,1.00
2019-03-18T16:02:20.478Z,0.72
2019-03-18T16:04:53.051Z,1.00
2019-03-18T16:07:26.501Z,1.22
2019-03-18T16:09:59.970Z,1.40
2019-03-18T16:15:05.290Z,0.80
2019-03-18T16:17:41.657Z,0.60
2019-03-18T16:20:16.225Z,0.65
2019-03-18T16:22:50.037Z,1.00
2019-03-18T16:25:23.948Z,0.88
2019-03-18T16:27:58.249Z,1.17
2019-03-18T16:30:31.660Z,1.07
2019-03-18T16:35:35.682Z,0.85
2019-03-18T16:38:08.384Z,0.85
2019-03-18T16:40:42.065Z,1.17
2019-03-18T16:43:16.124Z,1.25
2019-03-18T16:45:49.579Z,1.20
2019-03-18T16:50:54.855Z,1.20
2019-03-18T16:53:28.246Z,0.70
2019-03-18T16:56:01.229Z,0.78
2019-03-18T17:01:07.407Z,0.90
2019-03-18T17:03:40.593Z,1.05
2019-03-18T17:06:14.048Z,0.95
2019-03-18T17:08:46.779Z,0.80
2019-03-18T17:11:20.494Z,0.60
2019-03-18T17:13:54.099Z,1.02
2019-03-18T17:16:28.431Z,0.80
2019-03-18T17:19:01.152Z,1.07
2019-03-18T17:21:35.099Z,0.90
2019-03-18T17:24:08.532Z,0.98
2019-03-18T17:26:41.072Z,0.90
2019-03-18T17:29:14.340Z,1.05
2019-03-18T17:34:18.903Z,0.80
2019-03-18T17:36:52.612Z,0.85
2019-03-18T17:39:26.327Z,0.70
2019-03-18T17:41:59.682Z,0.88
2019-03-18T17:44:36.210Z,0.93
2019-03-18T17:47:10.393Z,0.80
2019-03-18T17:49:44.388Z,1.20
2019-03-18T17:52:18.109Z,1.00
2019-03-18T17:54:52.115Z,1.00
2019-03-18T17:57:25.112Z,0.98
2019-03-18T17:59:58.246Z,1.07
2019-03-18T18:02:30.791Z,0.98
2019-03-18T18:05:04.910Z,1.07
2019-03-18T18:07:37.984Z,1.30
2019-03-18T18:10:11.713Z,1.00
2019-03-18T18:12:44.790Z,1.05
2019-03-18T18:15:18.338Z,1.30
2019-03-18T18:17:51.855Z,1.37
2019-03-18T18:22:56.695Z,1.37
2019-03-18T18:25:30.109Z,1.50
2019-03-18T18:28:04.230Z,1.45
2019-03-18T18:30:38.537Z,1.60
2019-03-18T18:33:12.435Z,1.40
2019-03-18T18:35:46.038Z,1.65
2019-03-18T18:38:20.676Z,1.87
2019-03-18T18:40:54.658Z,1.70
2019-03-18T18:43:29.287Z,1.32
2019-03-18T18:46:02.876Z,1.42
2019-03-18T18:48:37.037Z,1.80
2019-03-18T18:51:10.704Z,1.45
2019-03-18T18:53:45.237Z,1.72
2019-03-18T18:56:19.279Z,1.55
2019-03-18T18:58:53.075Z,1.15
2019-03-18T19:01:27.458Z,1.25
2019-03-18T19:04:03.327Z,1.42
2019-03-18T19:06:37.246Z,2.27
2019-03-18T19:09:11.605Z,6.72
2019-03-18T19:11:46.560Z,9.85
2019-03-18T19:14:21.151Z,4.85
2019-03-18T19:16:55.601Z,4.65
2019-03-18T19:19:29.031Z,3.77
2019-03-18T19:22:03.328Z,4.17
2019-03-18T19:24:37.305Z,3.30
2019-03-18T19:27:13.995Z,2.60
2019-03-18T19:29:47.919Z,3.00
2019-03-18T19:32:21.877Z,3.37
2019-03-18T19:34:55.015Z,3.33
2019-03-18T19:37:28.435Z,2.55
2019-03-18T19:40:02.276Z,3.05
2019-03-18T19:42:36.087Z,2.75
2019-03-18T19:45:11.539Z,2.67
2019-03-18T19:47:44.665Z,2.55
2019-03-18T19:50:19.302Z,2.40
2019-03-18T19:52:53.535Z,2.72
2019-03-18T19:55:27.011Z,2.22
2019-03-18T20:00:31.627Z,2.12
2019-03-18T20:03:05.779Z,1.63
2019-03-18T20:05:39.819Z,1.85
2019-03-18T20:08:13.713Z,2.10
2019-03-18T20:10:47.891Z,1.77
2019-03-18T20:13:21.270Z,2.52
2019-03-18T20:15:54.913Z,2.17
2019-03-18T20:18:29.983Z,2.15
2019-03-18T20:21:04.356Z,1.80
2019-03-18T20:23:37.782Z,2.30
2019-03-18T20:28:42.789Z,2.10
2019-03-18T20:31:25.422Z,2.02
2019-03-18T20:33:52.138Z,1.98
2019-03-18T20:36:26.018Z,1.50
2019-03-18T20:38:59.932Z,1.50
2019-03-18T20:41:33.371Z,1.55
2019-03-18T20:46:38.078Z,1.40
2019-03-18T20:49:12.544Z,1.57
2019-03-18T20:51:46.286Z,2.25
2019-03-18T20:54:20.222Z,1.35
2019-03-18T20:56:54.143Z,2.08
2019-03-18T20:59:27.642Z,1.67
2019-03-18T21:02:02.393Z,1.57
2019-03-18T21:04:35.958Z,1.10
2019-03-18T21:07:09.783Z,1.83
2019-03-18T21:09:45.119Z,2.17
2019-03-18T21:12:19.454Z,1.40
2019-03-18T21:14:53.407Z,2.08
2019-03-18T21:17:27.064Z,1.47
2019-03-18T21:20:00.954Z,1.10
2019-03-18T21:22:34.528Z,1.25
2019-03-18T21:25:07.926Z,1.27
2019-03-18T21:27:41.088Z,1.65
2019-03-18T21:30:14.724Z,1.60
2019-03-18T21:35:20.261Z,1.85
2019-03-18T21:37:53.749Z,1.67
2019-03-18T21:40:27.267Z,1.27
2019-03-18T21:43:01.019Z,1.37
2019-03-18T21:45:35.659Z,0.70
2019-03-18T21:48:09.308Z,1.57
2019-03-18T21:53:17.262Z,1.85
2019-03-18T21:55:51.218Z,2.02
2019-03-18T21:58:24.644Z,1.32
2019-03-18T22:00:58.360Z,1.55
2019-03-18T22:03:31.689Z,1.70
2019-03-18T22:06:04.569Z,1.60
2019-03-18T22:08:38.449Z,1.82
2019-03-18T22:11:14.232Z,1.90
2019-03-18T22:13:48.133Z,1.80
2019-03-18T22:18:55.894Z,1.35
2019-03-18T22:21:28.988Z,1.00
2019-03-18T22:24:03.553Z,0.90
2019-03-18T22:26:37.769Z,0.98
2019-03-18T22:29:12.365Z,1.40
2019-03-18T22:31:46.585Z,1.62
2019-03-18T22:34:21.682Z,1.27
2019-03-18T22:36:55.755Z,1.47
2019-03-18T22:39:34.938Z,1.75
2019-03-18T22:42:09.648Z,1.67
2019-03-18T22:44:45.875Z,2.20
2019-03-18T22:47:19.213Z,1.85
2019-03-18T22:49:52.771Z,1.50
2019-03-18T22:52:25.805Z,2.12
2019-03-18T22:55:01.914Z,1.15
2019-03-18T22:57:35.359Z,2.30
2019-03-18T23:00:20.560Z,1.67
2019-03-18T23:03:00.736Z,1.92
2019-03-18T23:05:34.480Z,2.17
2019-03-18T23:08:07.968Z,2.33
2019-03-18T23:10:42.052Z,0.90
2019-03-18T23:13:16.687Z,1.67
2019-03-18T23:15:49.734Z,2.10
2019-03-18T23:18:23.197Z,2.02
2019-03-18T23:20:58.602Z,2.45
2019-03-18T23:23:32.004Z,3.00
2019-03-18T23:26:05.812Z,2.87
2019-03-18T23:28:45.939Z,2.27
2019-03-18T23:31:21.306Z,2.95
2019-03-18T23:33:58.727Z,3.08
2019-03-18T23:36:31.586Z,2.53
2019-03-18T23:39:05.927Z,2.67
2019-03-18T23:41:40.330Z,2.83
2019-03-18T23:44:14.276Z,2.60
2019-03-18T23:46:46.934Z,3.23
2019-03-18T23:49:19.630Z,3.10
2019-03-18T23:51:53.402Z,3.33
2019-03-18T23:54:27.648Z,3.30
